createdAt,value
2023-05-16T00:00:23.005Z,2.58
2023-05-16T00:02:50.015Z,2.47
2023-05-16T00:05:16.975Z,2.50
2023-05-16T00:07:44.272Z,2.78
2023-05-16T00:10:11.271Z,2.47
2023-05-16T00:12:39.626Z,2.28
2023-05-16T00:15:07.560Z,2.38
2023-05-16T00:17:34.479Z,2.10
2023-05-16T00:20:01.352Z,2.22
2023-05-16T00:22:28.204Z,2.35
2023-05-16T00:24:55.047Z,2.42
2023-05-16T00:27:21.908Z,1.98
2023-05-16T00:29:50.147Z,1.90
2023-05-16T00:32:17.837Z,2.33
2023-05-16T00:34:45.125Z,2.30
2023-05-16T00:37:12.821Z,2.50
2023-05-16T00:39:39.656Z,1.80
2023-05-16T00:42:06.574Z,1.88
2023-05-16T00:44:33.470Z,2.17
2023-05-16T00:47:01.867Z,1.98
2023-05-16T00:49:28.823Z,2.13
2023-05-16T00:51:55.800Z,2.22
2023-05-16T00:54:22.678Z,2.13
2023-05-16T00:56:49.545Z,1.95
2023-05-16T00:59:16.463Z,2.08
2023-05-16T01:01:43.533Z,1.90
2023-05-16T01:04:11.955Z,1.80
2023-05-16T01:06:38.876Z,2.20
2023-05-16T01:09:05.842Z,2.03
2023-05-16T01:11:36.205Z,1.95
2023-05-16T01:14:08.355Z,1.90
2023-05-16T01:16:37.288Z,1.85
2023-05-16T01:19:07.781Z,1.70
2023-05-16T01:21:42.474Z,1.75
2023-05-16T01:24:13.377Z,1.48
2023-05-16T01:26:41.623Z,1.92
2023-05-16T01:29:08.495Z,2.10
2023-05-16T01:31:35.423Z,1.88
2023-05-16T01:34:02.298Z,1.80
2023-05-16T01:36:33.102Z,1.80
2023-05-16T01:39:06.886Z,1.90
2023-05-16T01:41:41.341Z,1.50
2023-05-16T01:44:11.200Z,1.98
2023-05-16T01:46:40.351Z,1.85
2023-05-16T01:49:13.166Z,1.92
2023-05-16T01:51:40.026Z,1.65
2023-05-16T01:54:08.296Z,1.60
2023-05-16T01:56:35.178Z,1.67
2023-05-16T01:59:03.424Z,1.60
2023-05-16T02:01:30.461Z,1.92
2023-05-16T02:03:57.443Z,1.95
2023-05-16T02:06:24.332Z,1.50
2023-05-16T02:08:51.261Z,1.42
2023-05-16T02:11:18.137Z,2.00
2023-05-16T02:13:45.006Z,1.75
2023-05-16T02:16:13.326Z,1.45
2023-05-16T02:18:40.268Z,1.30
2023-05-16T02:21:07.161Z,1.38
2023-05-16T02:23:34.024Z,1.58
2023-05-16T02:26:00.869Z,1.50
2023-05-16T02:28:27.703Z,1.60
2023-05-16T02:30:57.844Z,1.63
2023-05-16T02:33:26.290Z,1.65
2023-05-16T02:35:53.194Z,1.48
2023-05-16T02:38:20.062Z,1.23
2023-05-16T02:40:46.954Z,1.50
2023-05-16T02:43:13.920Z,1.30
2023-05-16T02:45:40.787Z,1.60
2023-05-16T02:48:07.654Z,1.75
2023-05-16T02:50:35.910Z,1.70
2023-05-16T02:53:02.748Z,1.42
2023-05-16T02:55:29.592Z,1.63
2023-05-16T02:57:56.438Z,1.30
2023-05-16T03:00:23.648Z,1.50
2023-05-16T03:02:50.616Z,1.35
2023-05-16T03:05:17.762Z,1.42
2023-05-16T03:07:46.018Z,1.15
2023-05-16T03:10:12.866Z,1.40
2023-05-16T03:12:39.717Z,1.40
2023-05-16T03:15:07.774Z,1.73
2023-05-16T03:17:34.781Z,1.60
2023-05-16T03:20:01.686Z,1.42
2023-05-16T03:22:28.570Z,1.10
2023-05-16T03:24:56.797Z,1.30
2023-05-16T03:27:23.663Z,1.30
2023-05-16T03:29:50.607Z,1.27
2023-05-16T03:32:17.492Z,1.30
2023-05-16T03:34:44.499Z,1.40
2023-05-16T03:37:11.362Z,1.52
2023-05-16T03:39:38.217Z,1.30
2023-05-16T03:42:06.566Z,1.23
2023-05-16T03:44:33.465Z,1.10
2023-05-16T03:47:00.321Z,1.23
2023-05-16T03:49:27.331Z,1.40
2023-05-16T03:51:54.189Z,1.50
2023-05-16T03:54:21.062Z,1.00
2023-05-16T03:56:47.910Z,1.40
2023-05-16T03:59:16.127Z,1.38
2023-05-16T04:01:42.986Z,1.45
2023-05-16T04:04:09.851Z,1.23
2023-05-16T04:06:36.702Z,1.00
2023-05-16T04:09:03.682Z,1.05
2023-05-16T04:11:30.689Z,1.02
2023-05-16T04:13:58.045Z,1.25
2023-05-16T04:16:26.383Z,1.10
2023-05-16T04:18:53.329Z,1.23
2023-05-16T04:21:21.359Z,1.50
2023-05-16T04:23:48.217Z,1.00
2023-05-16T04:26:15.065Z,1.00
2023-05-16T04:28:41.933Z,1.20
2023-05-16T04:31:08.825Z,1.02
2023-05-16T04:33:37.054Z,1.05
2023-05-16T04:36:04.620Z,1.38
2023-05-16T04:38:31.477Z,1.08
2023-05-16T04:40:58.342Z,1.15
2023-05-16T04:43:25.213Z,0.98
2023-05-16T04:45:52.105Z,1.00
2023-05-16T04:48:18.955Z,1.05
2023-05-16T04:50:47.176Z,1.20
2023-05-16T04:53:14.039Z,1.33
2023-05-16T04:55:40.967Z,0.82
2023-05-16T04:58:07.838Z,1.10
2023-05-16T05:00:34.680Z,1.20
2023-05-16T05:03:01.640Z,1.33
2023-05-16T05:05:28.817Z,0.90
2023-05-16T05:07:58.075Z,1.30
2023-05-16T05:10:24.913Z,1.00
2023-05-16T05:12:51.779Z,0.85
2023-05-16T05:15:18.750Z,1.17
2023-05-16T05:17:45.657Z,1.48
2023-05-16T05:20:13.144Z,1.23
2023-05-16T05:22:40.012Z,1.10
2023-05-16T05:25:09.211Z,1.30
2023-05-16T05:27:36.069Z,1.25
2023-05-16T05:30:03.026Z,1.27
2023-05-16T05:32:30.001Z,1.13
2023-05-16T05:34:56.887Z,1.27
2023-05-16T05:37:23.759Z,1.10
2023-05-16T05:39:50.626Z,1.23
2023-05-16T05:42:18.869Z,1.20
2023-05-16T05:44:45.957Z,1.30
2023-05-16T05:47:12.898Z,1.10
2023-05-16T05:49:39.791Z,1.13
2023-05-16T05:52:06.837Z,1.50
2023-05-16T05:54:34.028Z,1.23
2023-05-16T05:57:00.904Z,1.25
2023-05-16T05:59:29.221Z,1.15
2023-05-16T06:01:56.169Z,1.23
2023-05-16T06:04:23.052Z,1.30
2023-05-16T06:06:49.931Z,1.42
2023-05-16T06:09:16.821Z,1.25
2023-05-16T06:11:43.706Z,1.25
2023-05-16T06:14:10.612Z,1.45
2023-05-16T06:16:38.874Z,1.77
2023-05-16T06:19:05.961Z,1.33
2023-05-16T06:21:32.999Z,1.50
2023-05-16T06:23:59.838Z,1.30
2023-05-16T06:26:26.742Z,1.67
2023-05-16T06:28:53.620Z,1.27
2023-05-16T06:31:20.525Z,1.40
2023-05-16T06:33:48.790Z,1.25
2023-05-16T06:36:15.656Z,1.30
2023-05-16T06:38:42.535Z,1.50
2023-05-16T06:41:09.536Z,1.73
2023-05-16T06:43:36.469Z,1.55
2023-05-16T06:46:03.395Z,1.30
2023-05-16T06:48:30.337Z,1.38
2023-05-16T06:50:58.669Z,1.55
2023-05-16T06:53:25.591Z,1.70
2023-05-16T06:55:52.491Z,1.58
2023-05-16T06:58:19.416Z,1.45
2023-05-16T07:00:46.304Z,1.75
2023-05-16T07:03:13.571Z,1.30
2023-05-16T07:05:40.749Z,2.05
2023-05-16T07:08:10.418Z,1.80
2023-05-16T07:10:37.303Z,1.45
2023-05-16T07:13:04.211Z,1.50
2023-05-16T07:15:31.223Z,1.85
2023-05-16T07:17:58.158Z,2.28
2023-05-16T07:20:25.118Z,1.90
2023-05-16T07:22:52.045Z,1.55
2023-05-16T07:25:20.379Z,1.10
2023-05-16T07:27:47.296Z,1.77
2023-05-16T07:30:14.750Z,1.50
2023-05-16T07:32:41.809Z,1.65
2023-05-16T07:35:09.686Z,2.20
2023-05-16T07:37:36.618Z,1.80
2023-05-16T07:40:03.937Z,2.25
2023-05-16T07:42:32.452Z,2.05
2023-05-16T07:44:59.421Z,1.70
2023-05-16T07:47:26.374Z,1.98
2023-05-16T07:49:53.279Z,2.10
2023-05-16T07:52:20.201Z,1.98
2023-05-16T07:54:47.116Z,1.30
2023-05-16T07:57:14.190Z,1.70
2023-05-16T07:59:42.497Z,1.40
2023-05-16T08:02:09.560Z,1.58
2023-05-16T08:04:36.675Z,1.83
2023-05-16T08:07:03.688Z,1.80
2023-05-16T08:09:30.591Z,1.20
2023-05-16T08:11:57.483Z,1.70
2023-05-16T08:14:24.430Z,1.83
2023-05-16T08:16:52.702Z,1.48
2023-05-16T08:19:19.637Z,1.70
2023-05-16T08:21:46.599Z,1.58
2023-05-16T08:24:13.612Z,2.03
2023-05-16T08:26:40.544Z,1.35
2023-05-16T08:29:07.501Z,1.27
2023-05-16T08:31:34.434Z,1.83
2023-05-16T08:34:02.791Z,1.80
2023-05-16T08:36:29.703Z,1.50
2023-05-16T08:38:56.627Z,1.80
2023-05-16T08:41:23.542Z,1.73
2023-05-16T08:43:50.546Z,1.70
2023-05-16T08:46:18.191Z,1.83
2023-05-16T08:48:45.133Z,1.90
2023-05-16T08:51:13.432Z,1.90
2023-05-16T08:53:42.455Z,1.80
2023-05-16T08:56:09.340Z,1.98
2023-05-16T08:58:36.723Z,2.03
2023-05-16T09:01:04.504Z,2.20
2023-05-16T09:03:31.539Z,2.17
2023-05-16T09:05:58.535Z,2.17
2023-05-16T09:08:26.825Z,1.92
2023-05-16T09:10:53.738Z,2.17
2023-05-16T09:13:20.727Z,2.20
2023-05-16T09:15:51.038Z,2.30
2023-05-16T09:18:17.975Z,2.22
2023-05-16T09:20:46.263Z,1.95
2023-05-16T09:23:13.146Z,2.40
2023-05-16T09:25:41.502Z,2.17
2023-05-16T09:28:10.883Z,2.55
2023-05-16T09:30:37.839Z,3.03
2023-05-16T09:33:06.485Z,2.13
2023-05-16T09:38:03.281Z,2.72
2023-05-16T09:40:30.200Z,2.47
2023-05-16T09:43:04.147Z,2.85
2023-05-16T09:48:01.983Z,2.67
2023-05-16T09:50:28.908Z,2.63
2023-05-16T09:52:55.835Z,2.38
2023-05-16T09:55:23.020Z,2.47
2023-05-16T09:57:49.928Z,2.60
2023-05-16T10:00:19.103Z,2.55
2023-05-16T10:02:46.139Z,2.47
2023-05-16T10:05:13.064Z,2.33
2023-05-16T10:07:40.032Z,2.30
2023-05-16T10:10:07.756Z,2.47
2023-05-16T10:12:34.750Z,2.40
2023-05-16T10:15:01.649Z,3.10
2023-05-16T10:17:31.097Z,3.03
2023-05-16T10:19:58.062Z,2.50
2023-05-16T10:22:25.009Z,2.97
2023-05-16T10:24:54.546Z,3.15
2023-05-16T10:27:21.578Z,2.75
2023-05-16T10:29:54.652Z,2.67
2023-05-16T10:32:22.329Z,2.38
2023-05-16T10:34:50.625Z,2.33
2023-05-16T10:37:17.548Z,2.63
2023-05-16T10:39:44.436Z,2.67
2023-05-16T10:42:11.352Z,2.95
2023-05-16T10:44:39.291Z,2.53
2023-05-16T10:47:06.655Z,2.55
2023-05-16T10:49:33.574Z,2.30
2023-05-16T10:52:07.361Z,2.35
2023-05-16T10:54:35.723Z,2.83
2023-05-16T10:57:05.186Z,3.17
2023-05-16T10:59:32.351Z,3.25
2023-05-16T11:01:59.466Z,3.20
2023-05-16T11:04:45.234Z,2.40
2023-05-16T11:07:13.520Z,2.88
2023-05-16T11:09:43.654Z,2.50
2023-05-16T11:12:10.535Z,2.80
2023-05-16T11:14:39.021Z,2.92
2023-05-16T11:17:10.317Z,2.50
2023-05-16T11:19:40.703Z,3.10
2023-05-16T11:22:13.499Z,3.00
2023-05-16T11:24:40.382Z,2.80
2023-05-16T11:27:07.289Z,3.30
2023-05-16T11:29:35.122Z,2.78
2023-05-16T11:32:03.379Z,2.92
2023-05-16T11:34:30.446Z,2.78
2023-05-16T11:36:57.325Z,2.72
2023-05-16T11:39:25.649Z,2.90
2023-05-16T11:41:53.176Z,2.55
2023-05-16T11:44:20.087Z,2.53
2023-05-16T11:46:47.078Z,3.10
2023-05-16T11:49:14.040Z,2.83
2023-05-16T11:51:40.971Z,2.55
2023-05-16T11:54:08.842Z,2.45
2023-05-16T11:56:37.146Z,2.78
2023-05-16T11:59:04.073Z,2.80
2023-05-16T12:01:34.349Z,3.15
2023-05-16T12:04:01.489Z,2.60
2023-05-16T12:06:28.509Z,3.50
2023-05-16T12:08:55.419Z,2.50
2023-05-16T12:11:23.502Z,2.80
2023-05-16T12:13:51.784Z,3.35
2023-05-16T12:16:18.816Z,3.10
2023-05-16T12:18:45.788Z,2.72
2023-05-16T12:21:13.119Z,2.70
2023-05-16T12:23:40.041Z,2.67
2023-05-16T12:26:06.971Z,2.80
2023-05-16T12:28:33.967Z,2.75
2023-05-16T12:31:02.322Z,2.50
2023-05-16T12:33:29.344Z,2.33
2023-05-16T12:35:56.245Z,2.58
2023-05-16T12:38:23.196Z,2.80
2023-05-16T12:40:50.082Z,2.80
2023-05-16T12:43:17.808Z,3.42
2023-05-16T12:45:49.980Z,3.17
2023-05-16T12:48:18.412Z,3.03
2023-05-16T12:50:45.390Z,2.70
2023-05-16T12:53:13.078Z,2.70
2023-05-16T12:55:39.974Z,2.90
2023-05-16T12:58:06.889Z,2.85
2023-05-16T13:00:33.810Z,2.95
2023-05-16T13:03:00.864Z,2.65
2023-05-16T13:05:29.226Z,3.63
2023-05-16T13:07:56.182Z,2.65
2023-05-16T13:10:23.085Z,2.70
2023-05-16T13:12:50.001Z,2.88
2023-05-16T13:15:16.894Z,2.72
2023-05-16T13:17:43.909Z,3.78
2023-05-16T13:20:11.080Z,2.50
2023-05-16T13:22:39.446Z,3.00
2023-05-16T13:25:07.113Z,3.00
2023-05-16T13:27:34.037Z,2.97
2023-05-16T13:30:01.152Z,2.80
2023-05-16T13:32:28.229Z,3.08
2023-05-16T13:34:55.185Z,2.75
2023-05-16T13:37:22.115Z,2.67
2023-05-16T13:39:50.399Z,3.35
2023-05-16T13:42:17.321Z,2.78
2023-05-16T13:44:44.236Z,2.88
2023-05-16T13:47:11.152Z,3.00
2023-05-16T13:49:38.048Z,2.47
2023-05-16T13:52:05.730Z,2.83
2023-05-16T13:54:32.677Z,3.05
2023-05-16T13:57:00.931Z,2.63
2023-05-16T13:59:46.109Z,2.75
2023-05-16T14:02:14.772Z,2.13
2023-05-16T14:04:41.706Z,2.72
2023-05-16T14:07:08.651Z,3.10
2023-05-16T14:09:35.569Z,2.92
2023-05-16T14:12:04.294Z,3.10
2023-05-16T14:14:31.316Z,2.85
2023-05-16T14:16:58.222Z,3.35
2023-05-16T14:19:25.216Z,2.97
2023-05-16T14:21:52.106Z,3.42
2023-05-16T14:24:19.008Z,2.70
2023-05-16T14:26:45.925Z,2.78
2023-05-16T14:29:14.221Z,3.15
2023-05-16T14:31:41.176Z,2.85
2023-05-16T14:34:08.209Z,2.92
2023-05-16T14:36:35.094Z,2.67
2023-05-16T14:39:01.985Z,3.20
2023-05-16T14:41:28.876Z,3.45
2023-05-16T14:43:55.782Z,2.70
2023-05-16T14:46:24.172Z,2.92
2023-05-16T14:48:51.182Z,3.35
2023-05-16T14:51:18.141Z,4.53
2023-05-16T14:53:46.965Z,3.22
2023-05-16T14:56:14.164Z,3.08
2023-05-16T14:58:41.076Z,3.40
2023-05-16T15:01:08.001Z,3.38
2023-05-16T15:03:51.159Z,3.33
2023-05-16T15:06:21.995Z,3.30
2023-05-16T15:08:48.905Z,3.08
2023-05-16T15:11:15.791Z,3.15
2023-05-16T15:13:42.736Z,2.83
2023-05-16T15:16:09.691Z,3.38
2023-05-16T15:18:38.072Z,2.80
2023-05-16T15:21:05.068Z,3.13
2023-05-16T15:23:32.027Z,3.10
2023-05-16T15:25:58.944Z,3.00
2023-05-16T15:28:25.932Z,3.03
2023-05-16T15:30:52.840Z,2.90
2023-05-16T15:33:19.743Z,3.03
2023-05-16T15:35:48.064Z,2.78
2023-05-16T15:38:14.986Z,3.10
2023-05-16T15:40:41.922Z,3.03
2023-05-16T15:43:08.819Z,3.13
2023-05-16T15:45:37.306Z,3.25
2023-05-16T15:48:06.038Z,2.75
2023-05-16T15:50:32.986Z,3.10
2023-05-16T15:53:01.289Z,2.78
2023-05-16T15:55:28.584Z,2.95
2023-05-16T15:57:55.784Z,3.05
2023-05-16T16:00:22.799Z,2.88
2023-05-16T16:02:49.854Z,3.20
2023-05-16T16:05:16.879Z,3.00
2023-05-16T16:07:43.772Z,2.53
2023-05-16T16:10:12.565Z,2.92
2023-05-16T16:12:39.529Z,2.50
2023-05-16T16:15:09.077Z,2.55
2023-05-16T16:17:36.020Z,2.58
2023-05-16T16:20:03.165Z,2.88
2023-05-16T16:22:30.093Z,2.70
2023-05-16T16:24:56.993Z,2.90
2023-05-16T16:27:25.316Z,2.38
2023-05-16T16:29:52.271Z,2.72
2023-05-16T16:32:19.209Z,2.53
2023-05-16T16:34:46.121Z,2.38
2023-05-16T16:37:13.090Z,2.58
2023-05-16T16:39:40.000Z,2.97
2023-05-16T16:42:07.507Z,2.70
2023-05-16T16:44:35.816Z,2.28
2023-05-16T16:47:02.841Z,2.80
2023-05-16T16:49:29.812Z,2.40
2023-05-16T16:51:56.720Z,2.72
2023-05-16T16:54:23.620Z,2.85
2023-05-16T16:56:50.535Z,2.38
2023-05-16T16:59:17.856Z,2.80
2023-05-16T17:01:46.358Z,2.80
2023-05-16T17:04:13.345Z,2.83
2023-05-16T17:06:40.320Z,3.00
2023-05-16T17:09:07.233Z,2.10
2023-05-16T17:11:34.116Z,2.38
2023-05-16T17:14:01.063Z,2.58
2023-05-16T17:16:28.081Z,2.40
2023-05-16T17:18:56.489Z,2.55
2023-05-16T17:21:23.481Z,2.13
2023-05-16T17:23:50.385Z,2.13
2023-05-16T17:26:17.380Z,2.13
2023-05-16T17:28:44.554Z,2.63
2023-05-16T17:31:11.517Z,2.05
2023-05-16T17:33:38.444Z,2.45
2023-05-16T17:36:07.105Z,2.67
2023-05-16T17:38:34.160Z,2.13
2023-05-16T17:41:01.267Z,2.30
2023-05-16T17:43:29.577Z,2.00
2023-05-16T17:45:56.561Z,2.50
2023-05-16T17:48:23.462Z,2.53
2023-05-16T17:50:50.346Z,2.53
2023-05-16T17:53:18.633Z,2.25
2023-05-16T17:55:45.576Z,2.10
2023-05-16T17:58:12.499Z,2.08
2023-05-16T18:00:39.427Z,2.08
2023-05-16T18:03:06.434Z,2.25
2023-05-16T18:05:33.403Z,2.13
2023-05-16T18:08:00.436Z,2.15
2023-05-16T18:10:36.603Z,2.38
2023-05-16T18:13:10.589Z,2.37
2023-05-16T18:15:38.811Z,2.13
2023-05-16T18:18:05.977Z,2.13
2023-05-16T18:20:32.958Z,2.20
2023-05-16T18:22:59.896Z,2.30
2023-05-16T18:25:28.435Z,1.90
2023-05-16T18:27:55.509Z,2.25
2023-05-16T18:30:22.573Z,2.40
2023-05-16T18:32:49.511Z,1.90
2023-05-16T18:35:16.558Z,2.60
2023-05-16T18:37:44.504Z,2.35
2023-05-16T18:40:12.454Z,2.25
2023-05-16T18:42:40.746Z,2.20
2023-05-16T18:45:08.688Z,2.30
2023-05-16T18:47:35.713Z,2.15
2023-05-16T18:50:02.622Z,2.38
2023-05-16T18:52:29.562Z,2.20
2023-05-16T18:54:56.501Z,2.10
2023-05-16T18:57:23.394Z,2.00
2023-05-16T18:59:53.669Z,2.25
2023-05-16T19:02:27.210Z,2.33
2023-05-16T19:04:58.982Z,2.20
2023-05-16T19:07:28.160Z,2.30
2023-05-16T19:09:55.123Z,2.20
2023-05-16T19:12:22.956Z,2.08
2023-05-16T19:14:51.282Z,1.92
2023-05-16T19:17:18.228Z,2.20
2023-05-16T19:19:45.251Z,1.88
2023-05-16T19:22:12.239Z,2.30
2023-05-16T19:24:39.154Z,1.75
2023-05-16T19:27:06.337Z,2.08
2023-05-16T19:29:33.234Z,2.15
2023-05-16T19:32:01.491Z,2.55
2023-05-16T19:34:28.451Z,1.95
2023-05-16T19:36:55.377Z,2.10
2023-05-16T19:39:22.253Z,2.08
2023-05-16T19:41:52.352Z,2.40
2023-05-16T19:44:19.398Z,1.95
2023-05-16T19:46:46.301Z,2.40
2023-05-16T19:49:14.579Z,1.67
2023-05-16T19:51:42.397Z,2.05
2023-05-16T19:54:09.459Z,2.00
2023-05-16T19:56:38.117Z,2.22
2023-05-16T19:59:05.027Z,2.40
2023-05-16T20:01:31.949Z,2.17
2023-05-16T20:03:58.854Z,2.17
2023-05-16T20:06:27.180Z,2.20
2023-05-16T20:08:54.107Z,2.08
2023-05-16T20:11:21.020Z,2.65
2023-05-16T20:13:47.953Z,2.15
2023-05-16T20:16:16.394Z,2.55
2023-05-16T20:18:43.400Z,2.30
2023-05-16T20:21:10.402Z,2.45
2023-05-16T20:23:38.664Z,2.70
2023-05-16T20:26:05.600Z,2.15
2023-05-16T20:28:32.490Z,2.67
2023-05-16T20:30:59.376Z,2.55
2023-05-16T20:33:26.354Z,2.75
2023-05-16T20:35:53.356Z,2.80
2023-05-16T20:38:20.260Z,3.50
2023-05-16T20:40:48.538Z,2.67
2023-05-16T20:43:15.497Z,2.92
2023-05-16T20:45:42.391Z,3.00
2023-05-16T20:48:09.320Z,2.55
2023-05-16T20:50:36.306Z,3.08
2023-05-16T20:53:03.321Z,2.88
2023-05-16T20:55:30.486Z,2.60
2023-05-16T20:57:58.879Z,3.15
2023-05-16T21:00:25.801Z,2.83
2023-05-16T21:02:52.781Z,3.00
2023-05-16T21:05:25.210Z,2.85
2023-05-16T21:07:52.791Z,3.10
2023-05-16T21:10:22.553Z,3.35
2023-05-16T21:12:49.456Z,4.13
2023-05-16T21:15:17.744Z,3.20
2023-05-16T21:17:44.772Z,3.22
2023-05-16T21:20:12.168Z,3.47
2023-05-16T21:22:39.057Z,3.45
2023-05-16T21:25:06.566Z,2.75
2023-05-16T21:27:33.451Z,2.67
2023-05-16T21:30:00.350Z,2.75
2023-05-16T21:32:28.689Z,2.70
2023-05-16T21:34:55.655Z,2.67
2023-05-16T21:37:22.531Z,2.50
2023-05-16T21:39:49.445Z,2.65
2023-05-16T21:42:16.329Z,2.70
2023-05-16T21:44:43.279Z,2.67
2023-05-16T21:47:10.185Z,3.22
2023-05-16T21:49:38.440Z,3.40
2023-05-16T21:52:07.292Z,3.08
2023-05-16T21:54:34.795Z,3.65
2023-05-16T21:57:01.681Z,3.58
2023-05-16T21:59:28.568Z,3.38
2023-05-16T22:01:55.450Z,3.28
2023-05-16T22:04:22.526Z,4.20
2023-05-16T22:06:50.883Z,4.13
2023-05-16T22:09:17.783Z,3.58
2023-05-16T22:11:44.685Z,3.50
2023-05-16T22:14:11.646Z,3.95
2023-05-16T22:16:38.561Z,3.28
2023-05-16T22:19:05.455Z,4.22
2023-05-16T22:21:32.476Z,4.05
2023-05-16T22:24:00.763Z,3.80
2023-05-16T22:26:27.713Z,3.28
2023-05-16T22:28:54.610Z,3.65
2023-05-16T22:31:21.568Z,3.97
2023-05-16T22:33:48.522Z,3.53
2023-05-16T22:36:15.505Z,3.90
2023-05-16T22:38:42.387Z,4.25
2023-05-16T22:41:10.649Z,3.42
2023-05-16T22:43:37.529Z,3.92
2023-05-16T22:46:04.515Z,3.80
2023-05-16T22:48:31.427Z,3.97
2023-05-16T22:50:58.305Z,4.18
2023-05-16T22:53:25.239Z,4.13
2023-05-16T22:55:52.147Z,4.20
2023-05-16T22:58:20.457Z,4.05
2023-05-16T23:00:47.364Z,4.80
2023-05-16T23:03:14.313Z,4.32
2023-05-16T23:05:41.242Z,4.40
2023-05-16T23:08:08.193Z,5.05
2023-05-16T23:10:35.102Z,5.47
2023-05-16T23:13:02.036Z,4.82
2023-05-16T23:15:30.524Z,4.18
2023-05-16T23:17:57.729Z,4.75
2023-05-16T23:20:24.745Z,4.85
2023-05-16T23:22:51.626Z,4.78
2023-05-16T23:25:18.548Z,5.72
2023-05-16T23:27:45.434Z,5.43
2023-05-16T23:30:12.960Z,5.25
2023-05-16T23:32:41.251Z,6.63
2023-05-16T23:35:08.380Z,5.60
2023-05-16T23:37:35.320Z,5.25
2023-05-16T23:40:02.256Z,5.70
2023-05-16T23:42:29.170Z,6.13
2023-05-16T23:44:56.069Z,6.00
2023-05-16T23:47:23.098Z,5.88
2023-05-16T23:49:51.401Z,5.72
2023-05-16T23:52:18.299Z,5.93
2023-05-16T23:54:45.215Z,5.65
2023-05-16T23:57:12.145Z,5.63
2023-05-16T23:59:39.086Z,5.40
